sensor_id;sensor_type;location;lat;lon;timestamp;temperature;humidity
68701;DHT22;55682;51.114;5.882;2023-03-08T00:01:46;3.63;83.59
68701;DHT22;55682;51.114;5.882;2023-03-08T00:04:11;3.65;83.78
68701;DHT22;55682;51.114;5.882;2023-03-08T00:06:37;3.75;83.34
68701;DHT22;55682;51.114;5.882;2023-03-08T00:09:03;3.75;83.22
68701;DHT22;55682;51.114;5.882;2023-03-08T00:11:29;3.77;83.05
68701;DHT22;55682;51.114;5.882;2023-03-08T00:13:55;3.75;83.29
68701;DHT22;55682;51.114;5.882;2023-03-08T00:16:21;3.80;83.23
68701;DHT22;55682;51.114;5.882;2023-03-08T00:18:47;3.73;83.26
68701;DHT22;55682;51.114;5.882;2023-03-08T00:21:15;3.72;83.44
68701;DHT22;55682;51.114;5.882;2023-03-08T00:23:42;3.79;83.19
68701;DHT22;55682;51.114;5.882;2023-03-08T00:26:09;3.84;83.17
68701;DHT22;55682;51.114;5.882;2023-03-08T00:28:35;3.84;83.29
68701;DHT22;55682;51.114;5.882;2023-03-08T00:31:04;3.90;83.08
68701;DHT22;55682;51.114;5.882;2023-03-08T00:33:31;3.90;83.10
68701;DHT22;55682;51.114;5.882;2023-03-08T00:36:04;3.99;83.00
68701;DHT22;55682;51.114;5.882;2023-03-08T00:38:33;4.02;82.48
68701;DHT22;55682;51.114;5.882;2023-03-08T00:40:59;4.01;82.47
68701;DHT22;55682;51.114;5.882;2023-03-08T00:43:26;4.00;82.63
68701;DHT22;55682;51.114;5.882;2023-03-08T00:45:52;4.04;82.30
68701;DHT22;55682;51.114;5.882;2023-03-08T00:48:18;4.03;82.26
68701;DHT22;55682;51.114;5.882;2023-03-08T00:50:44;4.05;82.46
68701;DHT22;55682;51.114;5.882;2023-03-08T00:53:10;4.12;82.39
68701;DHT22;55682;51.114;5.882;2023-03-08T00:55:36;4.10;82.20
68701;DHT22;55682;51.114;5.882;2023-03-08T00:58:02;4.15;82.10
68701;DHT22;55682;51.114;5.882;2023-03-08T01:00:28;4.17;81.83
68701;DHT22;55682;51.114;5.882;2023-03-08T01:02:55;4.17;81.91
68701;DHT22;55682;51.114;5.882;2023-03-08T01:05:21;4.19;81.94
68701;DHT22;55682;51.114;5.882;2023-03-08T01:07:47;4.17;81.88
68701;DHT22;55682;51.114;5.882;2023-03-08T01:10:13;4.17;81.83
68701;DHT22;55682;51.114;5.882;2023-03-08T01:12:39;4.16;81.64
68701;DHT22;55682;51.114;5.882;2023-03-08T01:15:06;4.10;81.81
68701;DHT22;55682;51.114;5.882;2023-03-08T01:17:32;4.06;81.98
68701;DHT22;55682;51.114;5.882;2023-03-08T01:19:58;4.08;82.01
68701;DHT22;55682;51.114;5.882;2023-03-08T01:22:23;4.09;81.94
68701;DHT22;55682;51.114;5.882;2023-03-08T01:24:49;4.07;82.05
68701;DHT22;55682;51.114;5.882;2023-03-08T01:27:16;4.07;82.33
68701;DHT22;55682;51.114;5.882;2023-03-08T01:29:43;4.07;82.57
68701;DHT22;55682;51.114;5.882;2023-03-08T01:32:09;4.08;82.28
68701;DHT22;55682;51.114;5.882;2023-03-08T01:34:36;4.09;82.22
68701;DHT22;55682;51.114;5.882;2023-03-08T01:37:02;4.07;82.31
68701;DHT22;55682;51.114;5.882;2023-03-08T01:39:28;4.09;82.02
68701;DHT22;55682;51.114;5.882;2023-03-08T01:41:54;4.06;82.36
68701;DHT22;55682;51.114;5.882;2023-03-08T01:44:20;4.08;82.39
68701;DHT22;55682;51.114;5.882;2023-03-08T01:46:51;4.14;82.44
68701;DHT22;55682;51.114;5.882;2023-03-08T01:49:27;4.20;82.29
68701;DHT22;55682;51.114;5.882;2023-03-08T01:52:15;4.26;82.24
68701;DHT22;55682;51.114;5.882;2023-03-08T01:54:52;4.34;82.11
68701;DHT22;55682;51.114;5.882;2023-03-08T01:57:27;4.39;81.85
68701;DHT22;55682;51.114;5.882;2023-03-08T02:00:16;4.45;81.61
68701;DHT22;55682;51.114;5.882;2023-03-08T02:02:55;4.48;81.50
68701;DHT22;55682;51.114;5.882;2023-03-08T02:05:23;4.48;81.55
68701;DHT22;55682;51.114;5.882;2023-03-08T02:07:54;4.48;81.55
68701;DHT22;55682;51.114;5.882;2023-03-08T02:10:23;4.51;81.16
68701;DHT22;55682;51.114;5.882;2023-03-08T02:12:52;4.56;80.75
68701;DHT22;55682;51.114;5.882;2023-03-08T02:15:19;4.59;80.44
68701;DHT22;55682;51.114;5.882;2023-03-08T02:17:49;4.58;80.32
68701;DHT22;55682;51.114;5.882;2023-03-08T02:20:31;4.59;80.26
68701;DHT22;55682;51.114;5.882;2023-03-08T02:23:22;4.52;80.54
68701;DHT22;55682;51.114;5.882;2023-03-08T02:26:03;4.51;80.74
68701;DHT22;55682;51.114;5.882;2023-03-08T02:28:29;4.52;80.60
68701;DHT22;55682;51.114;5.882;2023-03-08T02:30:57;4.52;80.59
68701;DHT22;55682;51.114;5.882;2023-03-08T02:33:23;4.52;80.41
68701;DHT22;55682;51.114;5.882;2023-03-08T02:35:49;4.53;80.17
68701;DHT22;55682;51.114;5.882;2023-03-08T02:38:17;4.57;79.63
68701;DHT22;55682;51.114;5.882;2023-03-08T02:40:43;4.49;79.80
68701;DHT22;55682;51.114;5.882;2023-03-08T02:43:09;4.42;79.87
68701;DHT22;55682;51.114;5.882;2023-03-08T02:45:39;4.35;79.92
68701;DHT22;55682;51.114;5.882;2023-03-08T02:48:07;4.32;80.12
68701;DHT22;55682;51.114;5.882;2023-03-08T02:50:33;4.28;80.23
68701;DHT22;55682;51.114;5.882;2023-03-08T02:53:01;4.23;80.50
68701;DHT22;55682;51.114;5.882;2023-03-08T02:55:27;4.19;80.43
68701;DHT22;55682;51.114;5.882;2023-03-08T02:57:53;4.09;80.55
68701;DHT22;55682;51.114;5.882;2023-03-08T03:00:19;4.02;80.65
68701;DHT22;55682;51.114;5.882;2023-03-08T03:02:45;4.02;80.79
68701;DHT22;55682;51.114;5.882;2023-03-08T03:05:11;4.00;80.94
68701;DHT22;55682;51.114;5.882;2023-03-08T03:07:41;4.03;81.17
68701;DHT22;55682;51.114;5.882;2023-03-08T03:10:13;4.02;81.36
68701;DHT22;55682;51.114;5.882;2023-03-08T03:12:40;4.06;81.58
68701;DHT22;55682;51.114;5.882;2023-03-08T03:15:10;4.07;81.45
68701;DHT22;55682;51.114;5.882;2023-03-08T03:17:37;4.10;81.21
68701;DHT22;55682;51.114;5.882;2023-03-08T03:20:04;4.07;81.24
68701;DHT22;55682;51.114;5.882;2023-03-08T03:22:40;4.08;81.28
68701;DHT22;55682;51.114;5.882;2023-03-08T03:25:07;4.06;81.43
68701;DHT22;55682;51.114;5.882;2023-03-08T03:27:33;4.10;81.34
68701;DHT22;55682;51.114;5.882;2023-03-08T03:29:58;4.08;81.25
68701;DHT22;55682;51.114;5.882;2023-03-08T03:32:24;4.06;81.30
68701;DHT22;55682;51.114;5.882;2023-03-08T03:34:51;4.08;81.33
68701;DHT22;55682;51.114;5.882;2023-03-08T03:37:19;4.10;81.18
68701;DHT22;55682;51.114;5.882;2023-03-08T03:39:45;4.09;81.08
68701;DHT22;55682;51.114;5.882;2023-03-08T03:42:14;4.09;81.18
68701;DHT22;55682;51.114;5.882;2023-03-08T03:44:47;4.08;81.08
68701;DHT22;55682;51.114;5.882;2023-03-08T03:47:16;4.06;81.15
68701;DHT22;55682;51.114;5.882;2023-03-08T03:49:43;4.07;81.30
68701;DHT22;55682;51.114;5.882;2023-03-08T03:52:09;4.07;81.04
68701;DHT22;55682;51.114;5.882;2023-03-08T03:54:41;4.04;81.01
68701;DHT22;55682;51.114;5.882;2023-03-08T03:57:06;4.02;81.04
68701;DHT22;55682;51.114;5.882;2023-03-08T03:59:36;4.02;80.89
68701;DHT22;55682;51.114;5.882;2023-03-08T04:02:02;4.00;80.97
68701;DHT22;55682;51.114;5.882;2023-03-08T04:04:53;3.97;80.99
68701;DHT22;55682;51.114;5.882;2023-03-08T04:07:23;3.91;81.10
68701;DHT22;55682;51.114;5.882;2023-03-08T04:09:59;3.82;81.26
68701;DHT22;55682;51.114;5.882;2023-03-08T04:12:25;3.75;81.74
68701;DHT22;55682;51.114;5.882;2023-03-08T04:14:52;3.71;81.88
68701;DHT22;55682;51.114;5.882;2023-03-08T04:17:18;3.67;82.14
68701;DHT22;55682;51.114;5.882;2023-03-08T04:19:50;3.56;82.50
68701;DHT22;55682;51.114;5.882;2023-03-08T04:22:17;3.53;82.65
68701;DHT22;55682;51.114;5.882;2023-03-08T04:24:47;3.47;82.78
68701;DHT22;55682;51.114;5.882;2023-03-08T04:27:19;3.40;82.97
68701;DHT22;55682;51.114;5.882;2023-03-08T04:29:44;3.36;83.20
68701;DHT22;55682;51.114;5.882;2023-03-08T04:32:10;3.34;83.24
68701;DHT22;55682;51.114;5.882;2023-03-08T04:34:44;3.30;83.44
68701;DHT22;55682;51.114;5.882;2023-03-08T04:37:13;3.26;83.82
68701;DHT22;55682;51.114;5.882;2023-03-08T04:39:41;3.20;84.12
68701;DHT22;55682;51.114;5.882;2023-03-08T04:42:08;3.12;84.48
68701;DHT22;55682;51.114;5.882;2023-03-08T04:44:34;3.06;84.73
68701;DHT22;55682;51.114;5.882;2023-03-08T04:47:02;3.03;84.71
68701;DHT22;55682;51.114;5.882;2023-03-08T04:49:35;3.00;84.94
68701;DHT22;55682;51.114;5.882;2023-03-08T04:52:02;3.00;85.03
68701;DHT22;55682;51.114;5.882;2023-03-08T04:54:30;2.90;85.22
68701;DHT22;55682;51.114;5.882;2023-03-08T04:57:01;2.67;85.99
68701;DHT22;55682;51.114;5.882;2023-03-08T04:59:26;2.42;86.92
68701;DHT22;55682;51.114;5.882;2023-03-08T05:01:55;2.25;87.89
68701;DHT22;55682;51.114;5.882;2023-03-08T05:04:22;2.13;88.74
68701;DHT22;55682;51.114;5.882;2023-03-08T05:06:47;2.02;89.05
68701;DHT22;55682;51.114;5.882;2023-03-08T05:09:18;1.95;89.73
68701;DHT22;55682;51.114;5.882;2023-03-08T05:11:47;1.83;89.83
68701;DHT22;55682;51.114;5.882;2023-03-08T05:14:14;1.72;90.24
68701;DHT22;55682;51.114;5.882;2023-03-08T05:16:40;1.60;91.21
68701;DHT22;55682;51.114;5.882;2023-03-08T05:19:05;1.47;92.10
68701;DHT22;55682;51.114;5.882;2023-03-08T05:21:36;1.41;92.06
68701;DHT22;55682;51.114;5.882;2023-03-08T05:24:02;1.43;92.14
68701;DHT22;55682;51.114;5.882;2023-03-08T05:26:31;1.24;93.46
68701;DHT22;55682;51.114;5.882;2023-03-08T05:29:00;1.28;92.91
68701;DHT22;55682;51.114;5.882;2023-03-08T05:31:27;1.26;93.33
68701;DHT22;55682;51.114;5.882;2023-03-08T05:33:55;1.24;93.27
68701;DHT22;55682;51.114;5.882;2023-03-08T05:36:28;1.23;93.46
68701;DHT22;55682;51.114;5.882;2023-03-08T05:38:56;1.25;93.55
68701;DHT22;55682;51.114;5.882;2023-03-08T05:41:27;1.25;93.24
68701;DHT22;55682;51.114;5.882;2023-03-08T05:43:54;1.25;93.69
68701;DHT22;55682;51.114;5.882;2023-03-08T05:46:24;1.31;93.51
68701;DHT22;55682;51.114;5.882;2023-03-08T05:48:49;1.24;93.55
68701;DHT22;55682;51.114;5.882;2023-03-08T05:51:18;1.31;93.40
68701;DHT22;55682;51.114;5.882;2023-03-08T05:53:45;1.32;93.74
68701;DHT22;55682;51.114;5.882;2023-03-08T05:56:17;1.26;93.43
68701;DHT22;55682;51.114;5.882;2023-03-08T05:58:51;1.31;93.40
68701;DHT22;55682;51.114;5.882;2023-03-08T06:01:23;1.10;95.03
68701;DHT22;55682;51.114;5.882;2023-03-08T06:03:54;1.10;95.48
68701;DHT22;55682;51.114;5.882;2023-03-08T06:06:24;1.05;95.69
68701;DHT22;55682;51.114;5.882;2023-03-08T06:08:50;1.08;95.36
68701;DHT22;55682;51.114;5.882;2023-03-08T06:11:17;1.06;96.09
68701;DHT22;55682;51.114;5.882;2023-03-08T06:13:45;1.16;95.39
68701;DHT22;55682;51.114;5.882;2023-03-08T06:16:13;1.17;95.52
68701;DHT22;55682;51.114;5.882;2023-03-08T06:18:41;1.18;95.53
68701;DHT22;55682;51.114;5.882;2023-03-08T06:21:16;1.26;95.10
68701;DHT22;55682;51.114;5.882;2023-03-08T06:23:44;1.29;94.98
68701;DHT22;55682;51.114;5.882;2023-03-08T06:26:11;1.34;94.69
68701;DHT22;55682;51.114;5.882;2023-03-08T06:28:39;1.32;94.94
68701;DHT22;55682;51.114;5.882;2023-03-08T06:31:09;1.28;95.10
68701;DHT22;55682;51.114;5.882;2023-03-08T06:33:36;1.27;95.10
68701;DHT22;55682;51.114;5.882;2023-03-08T06:36:08;1.28;94.96
68701;DHT22;55682;51.114;5.882;2023-03-08T06:38:36;1.32;95.04
68701;DHT22;55682;51.114;5.882;2023-03-08T06:41:03;1.22;95.23
68701;DHT22;55682;51.114;5.882;2023-03-08T06:43:29;1.18;95.51
68701;DHT22;55682;51.114;5.882;2023-03-08T06:45:55;1.16;95.79
68701;DHT22;55682;51.114;5.882;2023-03-08T06:48:21;1.08;96.04
68701;DHT22;55682;51.114;5.882;2023-03-08T06:50:48;1.08;96.01
68701;DHT22;55682;51.114;5.882;2023-03-08T06:53:14;1.06;96.10
68701;DHT22;55682;51.114;5.882;2023-03-08T06:55:51;0.99;96.55
68701;DHT22;55682;51.114;5.882;2023-03-08T06:58:18;1.08;96.42
68701;DHT22;55682;51.114;5.882;2023-03-08T07:00:43;1.16;96.13
68701;DHT22;55682;51.114;5.882;2023-03-08T07:03:11;1.19;96.09
68701;DHT22;55682;51.114;5.882;2023-03-08T07:05:36;1.20;96.20
68701;DHT22;55682;51.114;5.882;2023-03-08T07:08:03;1.17;96.29
68701;DHT22;55682;51.114;5.882;2023-03-08T07:10:29;1.18;96.37
68701;DHT22;55682;51.114;5.882;2023-03-08T07:12:54;1.19;96.15
68701;DHT22;55682;51.114;5.882;2023-03-08T07:15:22;1.01;97.06
68701;DHT22;55682;51.114;5.882;2023-03-08T07:17:50;1.04;97.13
68701;DHT22;55682;51.114;5.882;2023-03-08T07:20:18;1.04;97.22
68701;DHT22;55682;51.114;5.882;2023-03-08T07:22:45;1.07;97.16
68701;DHT22;55682;51.114;5.882;2023-03-08T07:25:13;0.99;97.44
68701;DHT22;55682;51.114;5.882;2023-03-08T07:27:39;1.03;97.23
68701;DHT22;55682;51.114;5.882;2023-03-08T07:30:05;0.96;97.58
68701;DHT22;55682;51.114;5.882;2023-03-08T07:32:35;0.97;97.62
68701;DHT22;55682;51.114;5.882;2023-03-08T07:35:01;1.03;97.60
68701;DHT22;55682;51.114;5.882;2023-03-08T07:37:27;0.97;97.87
68701;DHT22;55682;51.114;5.882;2023-03-08T07:39:52;0.99;98.00
68701;DHT22;55682;51.114;5.882;2023-03-08T07:42:18;0.99;97.81
68701;DHT22;55682;51.114;5.882;2023-03-08T07:44:50;0.89;98.42
68701;DHT22;55682;51.114;5.882;2023-03-08T07:47:15;0.86;98.90
68701;DHT22;55682;51.114;5.882;2023-03-08T07:49:41;0.89;99.06
68701;DHT22;55682;51.114;5.882;2023-03-08T07:52:06;0.89;98.91
68701;DHT22;55682;51.114;5.882;2023-03-08T07:54:32;0.81;99.34
68701;DHT22;55682;51.114;5.882;2023-03-08T07:56:58;0.92;99.53
68701;DHT22;55682;51.114;5.882;2023-03-08T07:59:23;0.89;99.32
68701;DHT22;55682;51.114;5.882;2023-03-08T08:01:49;0.90;99.61
68701;DHT22;55682;51.114;5.882;2023-03-08T08:04:15;0.88;99.61
68701;DHT22;55682;51.114;5.882;2023-03-08T08:06:41;0.99;99.49
68701;DHT22;55682;51.114;5.882;2023-03-08T08:09:09;0.96;99.53
68701;DHT22;55682;51.114;5.882;2023-03-08T08:11:36;0.87;99.91
68701;DHT22;55682;51.114;5.882;2023-03-08T08:14:04;0.93;99.98
68701;DHT22;55682;51.114;5.882;2023-03-08T08:16:31;0.99;100.00
68701;DHT22;55682;51.114;5.882;2023-03-08T08:18:56;0.87;100.09
68701;DHT22;55682;51.114;5.882;2023-03-08T08:21:22;0.99;99.93
68701;DHT22;55682;51.114;5.882;2023-03-08T08:23:48;1.04;99.82
68701;DHT22;55682;51.114;5.882;2023-03-08T08:26:17;1.13;99.55
68701;DHT22;55682;51.114;5.882;2023-03-08T08:28:45;1.02;99.54
68701;DHT22;55682;51.114;5.882;2023-03-08T08:31:14;0.99;99.77
68701;DHT22;55682;51.114;5.882;2023-03-08T08:33:40;0.95;100.08
68701;DHT22;55682;51.114;5.882;2023-03-08T08:36:10;1.05;100.19
68701;DHT22;55682;51.114;5.882;2023-03-08T08:38:36;1.16;99.83
68701;DHT22;55682;51.114;5.882;2023-03-08T08:41:06;1.19;99.83
68701;DHT22;55682;51.114;5.882;2023-03-08T08:43:33;1.13;99.90
68701;DHT22;55682;51.114;5.882;2023-03-08T08:46:00;1.23;99.78
68701;DHT22;55682;51.114;5.882;2023-03-08T08:48:27;1.22;99.92
68701;DHT22;55682;51.114;5.882;2023-03-08T08:50:53;1.27;99.73
68701;DHT22;55682;51.114;5.882;2023-03-08T08:53:19;1.26;99.67
68701;DHT22;55682;51.114;5.882;2023-03-08T08:55:46;1.39;99.47
68701;DHT22;55682;51.114;5.882;2023-03-08T08:58:12;1.52;99.87
68701;DHT22;55682;51.114;5.882;2023-03-08T09:00:38;1.49;99.15
68701;DHT22;55682;51.114;5.882;2023-03-08T09:03:04;1.60;99.26
68701;DHT22;55682;51.114;5.882;2023-03-08T09:05:32;1.51;99.08
68701;DHT22;55682;51.114;5.882;2023-03-08T09:08:00;1.70;98.93
68701;DHT22;55682;51.114;5.882;2023-03-08T09:10:27;1.68;98.72
68701;DHT22;55682;51.114;5.882;2023-03-08T09:12:53;1.77;98.04
68701;DHT22;55682;51.114;5.882;2023-03-08T09:15:19;1.53;98.45
68701;DHT22;55682;51.114;5.882;2023-03-08T09:17:46;1.58;98.72
68701;DHT22;55682;51.114;5.882;2023-03-08T09:20:12;1.70;98.09
68701;DHT22;55682;51.114;5.882;2023-03-08T09:22:39;1.67;97.88
68701;DHT22;55682;51.114;5.882;2023-03-08T09:25:07;1.79;97.69
68701;DHT22;55682;51.114;5.882;2023-03-08T09:27:34;2.00;97.61
68701;DHT22;55682;51.114;5.882;2023-03-08T09:29:59;2.12;96.93
68701;DHT22;55682;51.114;5.882;2023-03-08T09:32:25;2.11;96.91
68701;DHT22;55682;51.114;5.882;2023-03-08T09:34:52;2.20;96.02
68701;DHT22;55682;51.114;5.882;2023-03-08T09:37:18;2.20;95.46
68701;DHT22;55682;51.114;5.882;2023-03-08T09:39:44;2.34;94.69
68701;DHT22;55682;51.114;5.882;2023-03-08T09:42:22;2.31;94.37
68701;DHT22;55682;51.114;5.882;2023-03-08T09:48:14;2.01;95.42
68701;DHT22;55682;51.114;5.882;2023-03-08T09:51:01;2.37;93.88
68701;DHT22;55682;51.114;5.882;2023-03-08T09:53:35;2.38;93.92
68701;DHT22;55682;51.114;5.882;2023-03-08T09:56:05;2.46;93.37
68701;DHT22;55682;51.114;5.882;2023-03-08T10:06:31;2.87;92.56
68701;DHT22;55682;51.114;5.882;2023-03-08T10:09:01;3.06;91.94
68701;DHT22;55682;51.114;5.882;2023-03-08T10:11:42;3.17;91.18
68701;DHT22;55682;51.114;5.882;2023-03-08T10:14:23;2.96;91.56
68701;DHT22;55682;51.114;5.882;2023-03-08T10:16:59;3.05;92.37
68701;DHT22;55682;51.114;5.882;2023-03-08T10:20:01;3.11;91.91
68701;DHT22;55682;51.114;5.882;2023-03-08T10:22:33;3.08;91.31
68701;DHT22;55682;51.114;5.882;2023-03-08T10:25:25;3.06;91.65
68701;DHT22;55682;51.114;5.882;2023-03-08T10:27:57;3.13;91.77
68701;DHT22;55682;51.114;5.882;2023-03-08T10:30:27;3.19;91.84
68701;DHT22;55682;51.114;5.882;2023-03-08T10:32:57;3.10;91.85
68701;DHT22;55682;51.114;5.882;2023-03-08T10:36:05;3.39;90.69
68701;DHT22;55682;51.114;5.882;2023-03-08T10:38:35;3.43;89.85
68701;DHT22;55682;51.114;5.882;2023-03-08T10:43:45;3.68;90.44
68701;DHT22;55682;51.114;5.882;2023-03-08T10:46:14;3.88;89.76
68701;DHT22;55682;51.114;5.882;2023-03-08T10:48:41;4.13;88.80
68701;DHT22;55682;51.114;5.882;2023-03-08T10:51:22;4.12;88.21
68701;DHT22;55682;51.114;5.882;2023-03-08T10:54:00;4.08;88.46
68701;DHT22;55682;51.114;5.882;2023-03-08T10:56:37;4.21;87.43
68701;DHT22;55682;51.114;5.882;2023-03-08T10:59:12;4.48;86.46
68701;DHT22;55682;51.114;5.882;2023-03-08T11:01:49;4.49;85.09
68701;DHT22;55682;51.114;5.882;2023-03-08T11:04:18;4.47;85.78
68701;DHT22;55682;51.114;5.882;2023-03-08T11:06:45;4.28;85.03
68701;DHT22;55682;51.114;5.882;2023-03-08T11:09:31;4.16;86.81
68701;DHT22;55682;51.114;5.882;2023-03-08T11:12:01;3.95;86.74
68701;DHT22;55682;51.114;5.882;2023-03-08T11:14:28;3.95;87.18
68701;DHT22;55682;51.114;5.882;2023-03-08T11:39:01;5.34;83.28
68701;DHT22;55682;51.114;5.882;2023-03-08T12:01:03;4.87;84.16
68701;DHT22;55682;51.114;5.882;2023-03-08T12:03:39;5.02;83.67
68701;DHT22;55682;51.114;5.882;2023-03-08T12:06:22;4.97;85.93
68701;DHT22;55682;51.114;5.882;2023-03-08T12:11:43;4.71;86.96
68701;DHT22;55682;51.114;5.882;2023-03-08T12:14:15;4.74;84.71
68701;DHT22;55682;51.114;5.882;2023-03-08T12:17:01;4.86;84.04
68701;DHT22;55682;51.114;5.882;2023-03-08T12:19:37;4.80;84.78
68701;DHT22;55682;51.114;5.882;2023-03-08T12:24:45;4.67;85.67
68701;DHT22;55682;51.114;5.882;2023-03-08T12:27:26;4.98;83.88
68701;DHT22;55682;51.114;5.882;2023-03-08T12:29:55;5.05;84.77
68701;DHT22;55682;51.114;5.882;2023-03-08T12:32:25;5.05;83.97
68701;DHT22;55682;51.114;5.882;2023-03-08T12:35:27;5.15;82.68
68701;DHT22;55682;51.114;5.882;2023-03-08T12:38:04;5.25;82.32
68701;DHT22;55682;51.114;5.882;2023-03-08T12:40:39;5.35;83.13
68701;DHT22;55682;51.114;5.882;2023-03-08T12:43:09;5.27;82.55
68701;DHT22;55682;51.114;5.882;2023-03-08T12:45:36;5.16;82.52
68701;DHT22;55682;51.114;5.882;2023-03-08T12:50:39;5.07;82.40
68701;DHT22;55682;51.114;5.882;2023-03-08T12:53:22;5.08;82.68
68701;DHT22;55682;51.114;5.882;2023-03-08T12:58:31;5.07;82.31
68701;DHT22;55682;51.114;5.882;2023-03-08T13:01:04;5.04;82.11
68701;DHT22;55682;51.114;5.882;2023-03-08T13:03:40;5.07;82.30
68701;DHT22;55682;51.114;5.882;2023-03-08T13:22:37;4.67;83.89
68701;DHT22;55682;51.114;5.882;2023-03-08T13:30:33;4.30;85.09
68701;DHT22;55682;51.114;5.882;2023-03-08T13:33:00;4.31;85.31
68701;DHT22;55682;51.114;5.882;2023-03-08T13:35:30;4.19;85.46
68701;DHT22;55682;51.114;5.882;2023-03-08T13:37:58;3.99;86.58
68701;DHT22;55682;51.114;5.882;2023-03-08T13:40:26;3.91;86.84
68701;DHT22;55682;51.114;5.882;2023-03-08T13:43:01;4.12;86.05
68701;DHT22;55682;51.114;5.882;2023-03-08T13:45:28;4.06;86.16
68701;DHT22;55682;51.114;5.882;2023-03-08T13:47:57;4.01;86.24
68701;DHT22;55682;51.114;5.882;2023-03-08T13:50:35;3.87;87.66
68701;DHT22;55682;51.114;5.882;2023-03-08T13:53:06;3.83;87.98
68701;DHT22;55682;51.114;5.882;2023-03-08T13:55:38;4.01;86.93
68701;DHT22;55682;51.114;5.882;2023-03-08T14:03:28;4.26;85.79
68701;DHT22;55682;51.114;5.882;2023-03-08T14:05:54;4.20;86.35
68701;DHT22;55682;51.114;5.882;2023-03-08T14:08:25;4.21;86.14
68701;DHT22;55682;51.114;5.882;2023-03-08T14:11:02;4.32;85.83
68701;DHT22;55682;51.114;5.882;2023-03-08T14:13:37;4.31;86.86
68701;DHT22;55682;51.114;5.882;2023-03-08T14:16:08;4.27;86.74
68701;DHT22;55682;51.114;5.882;2023-03-08T14:18:46;4.20;86.34
68701;DHT22;55682;51.114;5.882;2023-03-08T14:21:16;4.07;87.21
68701;DHT22;55682;51.114;5.882;2023-03-08T14:23:48;3.99;87.56
68701;DHT22;55682;51.114;5.882;2023-03-08T14:29:18;4.04;87.11
68701;DHT22;55682;51.114;5.882;2023-03-08T14:32:21;4.04;87.42
68701;DHT22;55682;51.114;5.882;2023-03-08T14:34:48;4.14;87.25
68701;DHT22;55682;51.114;5.882;2023-03-08T14:37:28;4.28;87.18
68701;DHT22;55682;51.114;5.882;2023-03-08T14:40:18;4.37;86.85
68701;DHT22;55682;51.114;5.882;2023-03-08T14:42:45;4.35;86.50
68701;DHT22;55682;51.114;5.882;2023-03-08T14:48:13;4.59;85.93
68701;DHT22;55682;51.114;5.882;2023-03-08T14:53:39;4.67;85.86
68701;DHT22;55682;51.114;5.882;2023-03-08T14:58:44;4.48;86.06
68701;DHT22;55682;51.114;5.882;2023-03-08T15:01:43;4.52;86.06
68701;DHT22;55682;51.114;5.882;2023-03-08T15:04:16;4.56;86.41
68701;DHT22;55682;51.114;5.882;2023-03-08T15:06:42;4.63;86.31
68701;DHT22;55682;51.114;5.882;2023-03-08T15:09:16;4.78;86.06
68701;DHT22;55682;51.114;5.882;2023-03-08T15:11:44;4.96;85.38
68701;DHT22;55682;51.114;5.882;2023-03-08T15:14:11;5.06;84.93
68701;DHT22;55682;51.114;5.882;2023-03-08T15:16:37;5.11;84.61
68701;DHT22;55682;51.114;5.882;2023-03-08T15:19:03;5.10;84.39
68701;DHT22;55682;51.114;5.882;2023-03-08T15:21:30;5.07;84.71
68701;DHT22;55682;51.114;5.882;2023-03-08T15:23:57;5.06;84.41
68701;DHT22;55682;51.114;5.882;2023-03-08T15:26:26;4.96;84.54
68701;DHT22;55682;51.114;5.882;2023-03-08T15:28:53;4.87;84.66
68701;DHT22;55682;51.114;5.882;2023-03-08T15:31:18;4.83;84.94
68701;DHT22;55682;51.114;5.882;2023-03-08T15:33:44;4.74;85.29
68701;DHT22;55682;51.114;5.882;2023-03-08T15:36:16;4.65;85.44
68701;DHT22;55682;51.114;5.882;2023-03-08T15:38:42;4.65;85.56
68701;DHT22;55682;51.114;5.882;2023-03-08T15:41:13;4.71;85.54
68701;DHT22;55682;51.114;5.882;2023-03-08T15:43:39;4.69;85.23
68701;DHT22;55682;51.114;5.882;2023-03-08T15:46:05;4.67;85.27
68701;DHT22;55682;51.114;5.882;2023-03-08T15:48:31;4.66;85.22
68701;DHT22;55682;51.114;5.882;2023-03-08T15:50:57;4.52;85.74
68701;DHT22;55682;51.114;5.882;2023-03-08T15:53:23;4.47;85.84
68701;DHT22;55682;51.114;5.882;2023-03-08T15:55:49;4.48;86.24
68701;DHT22;55682;51.114;5.882;2023-03-08T15:58:14;4.51;86.04
68701;DHT22;55682;51.114;5.882;2023-03-08T16:00:40;4.43;86.45
68701;DHT22;55682;51.114;5.882;2023-03-08T16:03:06;4.43;86.68
68701;DHT22;55682;51.114;5.882;2023-03-08T16:05:32;4.50;86.55
68701;DHT22;55682;51.114;5.882;2023-03-08T16:08:00;4.54;86.56
68701;DHT22;55682;51.114;5.882;2023-03-08T16:10:28;4.59;85.93
68701;DHT22;55682;51.114;5.882;2023-03-08T16:12:55;4.53;85.96
68701;DHT22;55682;51.114;5.882;2023-03-08T16:15:20;4.54;86.12
68701;DHT22;55682;51.114;5.882;2023-03-08T16:17:46;4.50;86.37
68701;DHT22;55682;51.114;5.882;2023-03-08T16:20:14;4.56;86.25
68701;DHT22;55682;51.114;5.882;2023-03-08T16:22:40;4.52;86.15
68701;DHT22;55682;51.114;5.882;2023-03-08T16:25:07;4.44;86.69
68701;DHT22;55682;51.114;5.882;2023-03-08T16:27:33;4.43;86.86
68701;DHT22;55682;51.114;5.882;2023-03-08T16:30:00;4.26;87.40
68701;DHT22;55682;51.114;5.882;2023-03-08T16:32:26;4.21;87.23
68701;DHT22;55682;51.114;5.882;2023-03-08T16:34:59;4.21;87.59
68701;DHT22;55682;51.114;5.882;2023-03-08T16:37:26;4.23;87.53
68701;DHT22;55682;51.114;5.882;2023-03-08T16:39:52;4.18;87.32
68701;DHT22;55682;51.114;5.882;2023-03-08T16:42:20;4.23;87.31
68701;DHT22;55682;51.114;5.882;2023-03-08T16:44:51;4.34;86.99
68701;DHT22;55682;51.114;5.882;2023-03-08T16:47:19;4.36;86.75
68701;DHT22;55682;51.114;5.882;2023-03-08T16:49:45;4.41;86.77
68701;DHT22;55682;51.114;5.882;2023-03-08T16:52:10;4.46;86.61
68701;DHT22;55682;51.114;5.882;2023-03-08T16:54:36;4.46;86.49
68701;DHT22;55682;51.114;5.882;2023-03-08T16:57:02;4.42;86.30
68701;DHT22;55682;51.114;5.882;2023-03-08T16:59:30;4.43;86.24
68701;DHT22;55682;51.114;5.882;2023-03-08T17:01:56;4.39;86.23
68701;DHT22;55682;51.114;5.882;2023-03-08T17:04:22;4.32;86.44
68701;DHT22;55682;51.114;5.882;2023-03-08T17:06:48;4.32;86.65
68701;DHT22;55682;51.114;5.882;2023-03-08T17:09:14;4.33;86.74
68701;DHT22;55682;51.114;5.882;2023-03-08T17:11:41;4.32;86.83
68701;DHT22;55682;51.114;5.882;2023-03-08T17:14:09;4.24;87.06
68701;DHT22;55682;51.114;5.882;2023-03-08T17:16:35;4.23;86.81
68701;DHT22;55682;51.114;5.882;2023-03-08T17:19:04;4.24;86.84
68701;DHT22;55682;51.114;5.882;2023-03-08T17:21:30;4.18;87.47
68701;DHT22;55682;51.114;5.882;2023-03-08T17:23:58;4.17;86.93
68701;DHT22;55682;51.114;5.882;2023-03-08T17:26:24;4.18;86.97
68701;DHT22;55682;51.114;5.882;2023-03-08T17:28:51;4.22;86.64
68701;DHT22;55682;51.114;5.882;2023-03-08T17:31:19;4.18;86.64
68701;DHT22;55682;51.114;5.882;2023-03-08T17:33:45;3.92;86.97
68701;DHT22;55682;51.114;5.882;2023-03-08T17:36:12;3.87;87.51
68701;DHT22;55682;51.114;5.882;2023-03-08T17:38:38;3.84;88.06
68701;DHT22;55682;51.114;5.882;2023-03-08T17:41:05;3.88;87.81
68701;DHT22;55682;51.114;5.882;2023-03-08T17:43:31;3.93;87.58